Nathalie — OJLP — position and weather

sailwx.info

Track history (hours):
 
Tides and Currents Weather Stations Pressure Air Temp Water Temp Dewpoint Dewpoint Depression Visibility Wind Speed Wind Dir Waves Ship Positions

Nathalie

Last reported at 2015-Apr-02 00:31 UTC. Time now 2015-Apr-02 01:24 UTC.
Position N 53°26' E 014°35'.

Length 64 m; draft 3.4 m.

Type: Cargo ship. MMSI: 230987660.

Date/timePositionNaut miles runAvg speedWind from/ knotsBaromVisibWave heightAir tempDewpointWater temp
2015-Apr-02 00:31N 53°26' E 014°35'0 0.0
2015-Apr-01 23:31N 53°26' E 014°35'0 0.0
2015-Apr-01 22:31N 53°26' E 014°35'0 0.0
2015-Apr-01 21:28N 53°26' E 014°35'0 0.0
2015-Apr-01 20:33N 53°26' E 014°35'0 0.0
2015-Apr-01 19:30N 53°26' E 014°35'0 0.0
2015-Apr-01 18:30N 53°26' E 014°35'0 0.0
2015-Apr-01 17:33N 53°26' E 014°35'0 0.0
2015-Apr-01 16:33N 53°26' E 014°35'0 0.0
2015-Apr-01 15:33N 53°26' E 014°35'0 0.0
2015-Apr-01 14:33N 53°26' E 014°35'0 0.0
2015-Apr-01 13:33N 53°26' E 014°35'0 0.0
2015-Apr-01 12:33N 53°26' E 014°35'0 0.0
2015-Apr-01 11:33N 53°26' E 014°35'0 0.0
2015-Apr-01 10:33N 53°26' E 014°35'0 0.0
2015-Apr-01 09:33N 53°26' E 014°35'0 0.0
2015-Apr-01 08:33N 53°26' E 014°35'0 0.0
2015-Apr-01 07:30N 53°26' E 014°35'0 0.0
2015-Apr-01 06:33N 53°26' E 014°35'0 0.0
2015-Apr-01 05:33N 53°26' E 014°35'0 0.0
2015-Apr-01 04:33N 53°26' E 014°35'0 0.0
2015-Apr-01 03:33N 53°26' E 014°35'0 0.0
2015-Apr-01 02:30N 53°26' E 014°35'0 0.0
2015-Apr-01 01:33N 53°26' E 014°35'0 0.0
2015-Apr-01 00:33N 53°26' E 014°35'0 0.0
2015-Mar-31 23:33N 53°26' E 014°35'0 0.0
2015-Mar-31 22:33N 53°26' E 014°35'0 0.0
2015-Mar-31 21:33N 53°26' E 014°35'0 0.0
2015-Mar-31 20:33N 53°26' E 014°35'0 0.0
2015-Mar-31 19:33N 53°26' E 014°35'0 0.0
2015-Mar-31 18:33N 53°26' E 014°35'0 0.0
2015-Mar-31 17:33N 53°26' E 014°35'0 0.0
2015-Mar-31 16:33N 53°26' E 014°35'0 0.0
2015-Mar-31 15:33N 53°26' E 014°35'0 0.0
2015-Mar-31 14:33N 53°26' E 014°35'0 0.0
2015-Mar-31 13:33N 53°26' E 014°35'0 0.0
2015-Mar-31 12:33N 53°26' E 014°35'0 0.0
2015-Mar-31 11:33N 53°26' E 014°35'0 0.0
2015-Mar-31 10:32N 53°26' E 014°35'0 0.0
2015-Mar-31 09:32N 53°26' E 014°35'0 0.0
2015-Mar-31 08:32N 53°26' E 014°35'1 1.2
2015-Mar-31 07:34N 53°27' E 014°36'8 7.6
2015-Mar-31 06:33N 53°35' E 014°36'9 8.6
2015-Mar-31 05:34N 53°42' E 014°29'9 9.1
2015-Mar-31 04:34N 53°49' E 014°19'7 6.9
2015-Mar-31 03:34N 53°56' E 014°17'5 5.2
2015-Mar-31 02:33N 54°01' E 014°18'8 8.4
2015-Mar-31 01:34N 54°06' E 014°30'8 7.6
2015-Mar-31 00:31N 54°10' E 014°41'  
2015-Mar-24 14:17N 59°30' E 024°32'5 7.4
2015-Mar-24 13:32N 59°27' E 024°40'0 0.0
2015-Mar-24 12:33N 59°27' E 024°40'0 0.0
2015-Mar-24 11:17N 59°27' E 024°40'0 0.0
2015-Mar-24 10:23N 59°27' E 024°40'0 0.0
2015-Mar-24 09:29N 59°27' E 024°40'0 0.0
2015-Mar-24 08:23N 59°27' E 024°40'0 0.0
2015-Mar-24 07:29N 59°27' E 024°40'0 0.0
2015-Mar-24 06:29N 59°27' E 024°40'0 0.0
2015-Mar-24 05:22N 59°27' E 024°40'0 0.0
2015-Mar-24 04:20N 59°27' E 024°40'3 4.1
2015-Mar-24 03:33N 59°30' E 024°37'8 7.5
2015-Mar-24 02:33N 59°37' E 024°40'  
Track history (hours):
 
Tides and Currents Weather Stations Pressure Air Temp Water Temp Dewpoint Dewpoint Depression Visibility Wind Speed Wind Dir Waves Ship Positions

Nathalie

Last reported at 2015-Apr-02 00:31 UTC. Time now 2015-Apr-02 01:24 UTC.
Position N 53°26' E 014°35'.

Length 64 m; draft 3.4 m.

Type: Cargo ship. MMSI: 230987660.

Date/timePositionNaut miles runAvg speedWind from/ knotsBaromVisibWave heightAir tempDewpointWater temp
2015-Apr-02 00:31N 53°26' E 014°35'0 0.0
2015-Apr-01 23:31N 53°26' E 014°35'0 0.0
2015-Apr-01 22:31N 53°26' E 014°35'0 0.0
2015-Apr-01 21:28N 53°26' E 014°35'0 0.0
2015-Apr-01 20:33N 53°26' E 014°35'0 0.0
2015-Apr-01 19:30N 53°26' E 014°35'0 0.0
2015-Apr-01 18:30N 53°26' E 014°35'0 0.0
2015-Apr-01 17:33N 53°26' E 014°35'0 0.0
2015-Apr-01 16:33N 53°26' E 014°35'0 0.0
2015-Apr-01 15:33N 53°26' E 014°35'0 0.0
2015-Apr-01 14:33N 53°26' E 014°35'0 0.0
2015-Apr-01 13:33N 53°26' E 014°35'0 0.0
2015-Apr-01 12:33N 53°26' E 014°35'0 0.0
2015-Apr-01 11:33N 53°26' E 014°35'0 0.0
2015-Apr-01 10:33N 53°26' E 014°35'0 0.0
2015-Apr-01 09:33N 53°26' E 014°35'0 0.0
2015-Apr-01 08:33N 53°26' E 014°35'0 0.0
2015-Apr-01 07:30N 53°26' E 014°35'0 0.0
2015-Apr-01 06:33N 53°26' E 014°35'0 0.0
2015-Apr-01 05:33N 53°26' E 014°35'0 0.0
2015-Apr-01 04:33N 53°26' E 014°35'0 0.0
2015-Apr-01 03:33N 53°26' E 014°35'0 0.0
2015-Apr-01 02:30N 53°26' E 014°35'0 0.0
2015-Apr-01 01:33N 53°26' E 014°35'0 0.0
2015-Apr-01 00:33N 53°26' E 014°35'0 0.0
2015-Mar-31 23:33N 53°26' E 014°35'0 0.0
2015-Mar-31 22:33N 53°26' E 014°35'0 0.0
2015-Mar-31 21:33N 53°26' E 014°35'0 0.0
2015-Mar-31 20:33N 53°26' E 014°35'0 0.0
2015-Mar-31 19:33N 53°26' E 014°35'0 0.0
2015-Mar-31 18:33N 53°26' E 014°35'0 0.0
2015-Mar-31 17:33N 53°26' E 014°35'0 0.0
2015-Mar-31 16:33N 53°26' E 014°35'0 0.0
2015-Mar-31 15:33N 53°26' E 014°35'0 0.0
2015-Mar-31 14:33N 53°26' E 014°35'0 0.0
2015-Mar-31 13:33N 53°26' E 014°35'0 0.0
2015-Mar-31 12:33N 53°26' E 014°35'0 0.0
2015-Mar-31 11:33N 53°26' E 014°35'0 0.0
2015-Mar-31 10:32N 53°26' E 014°35'0 0.0
2015-Mar-31 09:32N 53°26' E 014°35'0 0.0
2015-Mar-31 08:32N 53°26' E 014°35'1 1.2
2015-Mar-31 07:34N 53°27' E 014°36'8 7.6
2015-Mar-31 06:33N 53°35' E 014°36'9 8.6
2015-Mar-31 05:34N 53°42' E 014°29'9 9.1
2015-Mar-31 04:34N 53°49' E 014°19'7 6.9
2015-Mar-31 03:34N 53°56' E 014°17'5 5.2
2015-Mar-31 02:33N 54°01' E 014°18'8 8.4
2015-Mar-31 01:34N 54°06' E 014°30'8 7.6
2015-Mar-31 00:31N 54°10' E 014°41'  
2015-Mar-24 14:17N 59°30' E 024°32'5 7.4
2015-Mar-24 13:32N 59°27' E 024°40'0 0.0
2015-Mar-24 12:33N 59°27' E 024°40'0 0.0
2015-Mar-24 11:17N 59°27' E 024°40'0 0.0
2015-Mar-24 10:23N 59°27' E 024°40'0 0.0
2015-Mar-24 09:29N 59°27' E 024°40'0 0.0
2015-Mar-24 08:23N 59°27' E 024°40'0 0.0
2015-Mar-24 07:29N 59°27' E 024°40'0 0.0
2015-Mar-24 06:29N 59°27' E 024°40'0 0.0
2015-Mar-24 05:22N 59°27' E 024°40'0 0.0
2015-Mar-24 04:20N 59°27' E 024°40'3 4.1
2015-Mar-24 03:33N 59°30' E 024°37'8 7.5
2015-Mar-24 02:33N 59°37' E 024°40'  

Dump ship's entire track history